createdAt,value
2023-04-02T00:01:05.125Z,8.31
2023-04-02T00:03:08.652Z,8.26
2023-04-02T00:05:31.630Z,8.15
2023-04-02T00:07:33.691Z,8.13
2023-04-02T00:09:38.783Z,8.20
2023-04-02T00:11:54.679Z,8.12
2023-04-02T00:14:01.632Z,8.18
2023-04-02T00:16:06.828Z,8.29
2023-04-02T00:18:14.121Z,8.27
2023-04-02T00:20:16.539Z,8.18
2023-04-02T00:22:20.505Z,8.15
2023-04-02T00:24:22.303Z,8.02
2023-04-02T00:26:36.617Z,8.14
2023-04-02T00:28:38.223Z,8.24
2023-04-02T00:30:47.511Z,8.13
2023-04-02T00:32:49.404Z,8.15
2023-04-02T00:34:51.122Z,8.17
2023-04-02T00:36:53.427Z,8.28
2023-04-02T00:38:59.463Z,8.22
2023-04-02T00:41:06.151Z,8.25
2023-04-02T00:43:08.039Z,8.18
2023-04-02T00:45:22.479Z,8.15
2023-04-02T00:47:32.588Z,8.18
2023-04-02T00:49:38.695Z,8.18
2023-04-02T00:52:02.521Z,8.27
2023-04-02T00:54:09.454Z,8.18
2023-04-02T00:56:17.346Z,8.17
2023-04-02T00:58:31.850Z,8.18
2023-04-02T01:00:35.941Z,8.07
2023-04-02T01:02:40.694Z,8.19
2023-04-02T01:04:51.373Z,8.16
2023-04-02T01:06:53.889Z,8.10
2023-04-02T01:09:01.619Z,8.15
2023-04-02T01:11:24.656Z,8.10
2023-04-02T01:13:46.091Z,8.13
2023-04-02T01:15:57.434Z,8.03
2023-04-02T01:18:13.703Z,8.05
2023-04-02T01:20:45.091Z,8.23
2023-04-02T01:23:06.068Z,8.31
2023-04-02T01:25:08.419Z,8.36
2023-04-02T01:27:18.936Z,8.24
2023-04-02T01:29:26.283Z,8.20
2023-04-02T01:31:29.719Z,8.22
2023-04-02T01:33:34.368Z,8.29
2023-04-02T01:35:42.493Z,8.28
2023-04-02T01:37:53.135Z,8.59
2023-04-02T01:40:10.079Z,8.50
2023-04-02T01:42:25.476Z,8.27
2023-04-02T01:44:34.578Z,8.35
2023-04-02T01:46:40.758Z,8.33
2023-04-02T01:48:42.461Z,8.36
2023-04-02T01:50:45.297Z,8.51
2023-04-02T01:52:50.901Z,8.42
2023-04-02T01:54:53.503Z,8.45
2023-04-02T01:56:57.376Z,8.41
2023-04-02T01:59:01.173Z,8.42
2023-04-02T02:01:16.318Z,8.47
2023-04-02T02:03:19.675Z,8.51
2023-04-02T02:05:23.160Z,8.48
2023-04-02T02:07:28.096Z,8.45
2023-04-02T02:09:34.103Z,8.41
2023-04-02T02:11:36.408Z,8.36
2023-04-02T02:13:39.470Z,8.50
2023-04-02T02:15:42.102Z,8.41
2023-04-02T02:17:44.802Z,8.46
2023-04-02T02:19:51.666Z,8.50
2023-04-02T02:21:56.624Z,8.55
2023-04-02T02:23:59.917Z,8.54
2023-04-02T02:26:01.984Z,8.47
2023-04-02T02:28:32.873Z,8.53
2023-04-02T02:30:42.391Z,8.43
2023-04-02T02:32:55.968Z,8.44
2023-04-02T02:35:11.167Z,8.32
2023-04-02T02:37:17.507Z,8.42
2023-04-02T02:39:40.892Z,8.43
2023-04-02T02:41:52.562Z,8.44
2023-04-02T02:44:04.445Z,8.34
2023-04-02T02:46:10.247Z,8.27
2023-04-02T02:48:16.264Z,8.36
2023-04-02T02:50:23.013Z,8.30
2023-04-02T02:52:32.730Z,8.25
2023-04-02T02:54:46.542Z,8.37
2023-04-02T02:56:54.367Z,8.24
2023-04-02T02:58:56.278Z,8.23
2023-04-02T03:01:04.089Z,8.14
2023-04-02T03:03:12.734Z,8.15
2023-04-02T03:05:21.099Z,8.21
2023-04-02T03:07:27.250Z,8.20
2023-04-02T03:09:41.113Z,8.25
2023-04-02T03:12:08.685Z,8.34
2023-04-02T03:14:26.011Z,8.36
2023-04-02T03:16:42.185Z,8.18
2023-04-02T03:18:47.586Z,8.31
2023-04-02T03:20:54.417Z,8.19
2023-04-02T03:23:40.533Z,8.26
2023-04-02T03:26:06.388Z,8.28
2023-04-02T03:28:15.477Z,8.45
2023-04-02T03:30:47.686Z,8.18
2023-04-02T03:32:57.393Z,8.27
2023-04-02T03:35:16.122Z,8.27
2023-04-02T03:37:42.302Z,8.29
2023-04-02T03:39:50.812Z,8.30
2023-04-02T03:42:01.489Z,8.20
2023-04-02T03:44:11.624Z,8.28
2023-04-02T03:46:37.251Z,8.28
2023-04-02T03:48:51.397Z,8.23
2023-04-02T03:51:14.442Z,8.04
2023-04-02T03:53:16.809Z,7.94
2023-04-02T03:55:21.477Z,7.97
2023-04-02T03:57:36.768Z,7.89
2023-04-02T04:00:02.643Z,7.95
2023-04-02T04:02:40.332Z,8.10
2023-04-02T04:04:45.936Z,8.14
2023-04-02T04:06:52.265Z,8.11
2023-04-02T04:09:00.252Z,8.07
2023-04-02T04:11:08.484Z,8.12
2023-04-02T04:13:18.297Z,8.09
2023-04-02T04:15:31.074Z,8.17
2023-04-02T04:17:57.575Z,8.28
2023-04-02T04:20:33.720Z,8.16
2023-04-02T04:22:35.801Z,8.21
2023-04-02T04:24:48.710Z,8.21
2023-04-02T04:26:57.683Z,8.15
2023-04-02T04:29:12.341Z,8.14
2023-04-02T04:31:27.135Z,8.11
2023-04-02T04:33:40.384Z,8.00
2023-04-02T04:35:51.695Z,7.87
2023-04-02T04:38:03.825Z,8.02
2023-04-02T04:40:19.260Z,7.91
2023-04-02T04:42:33.037Z,7.99
2023-04-02T04:44:39.815Z,8.00
2023-04-02T04:46:47.371Z,8.06
2023-04-02T04:48:58.005Z,8.10
2023-04-02T04:51:08.561Z,8.13
2023-04-02T04:53:20.130Z,8.23
2023-04-02T04:55:38.217Z,8.08
2023-04-02T04:57:42.506Z,8.08
2023-04-02T04:59:56.318Z,7.98
2023-04-02T05:02:17.307Z,8.09
2023-04-02T05:04:28.967Z,8.19
2023-04-02T05:06:44.869Z,8.17
2023-04-02T05:08:51.162Z,7.99
2023-04-02T05:10:58.206Z,8.15
2023-04-02T05:13:21.236Z,8.14
2023-04-02T05:15:29.327Z,8.12
2023-04-02T05:17:36.006Z,8.13
2023-04-02T05:20:00.785Z,8.12
2023-04-02T05:22:14.413Z,8.15
2023-04-02T05:24:38.101Z,8.19
2023-04-02T05:26:45.829Z,8.23
2023-04-02T05:28:50.457Z,8.20
2023-04-02T05:31:03.079Z,8.26
2023-04-02T05:33:20.838Z,8.25
2023-04-02T05:35:29.435Z,8.24
2023-04-02T05:37:31.566Z,8.26
2023-04-02T05:39:35.126Z,8.35
2023-04-02T05:41:44.379Z,8.25
2023-04-02T05:43:51.215Z,8.20
2023-04-02T05:45:57.236Z,8.29
2023-04-02T05:48:04.154Z,8.28
2023-04-02T05:50:19.559Z,8.22
2023-04-02T05:52:29.895Z,8.34
2023-04-02T05:54:42.709Z,8.37
2023-04-02T05:56:48.715Z,8.38
2023-04-02T05:58:59.895Z,8.37
2023-04-02T06:01:18.409Z,8.34
2023-04-02T06:03:27.300Z,8.42
2023-04-02T06:05:36.830Z,8.37
2023-04-02T06:07:59.930Z,8.13
2023-04-02T06:10:09.401Z,7.78
2023-04-02T06:12:22.108Z,7.66
2023-04-02T06:14:24.079Z,7.57
2023-04-02T06:16:28.639Z,7.53
2023-04-02T06:18:34.474Z,7.46
2023-04-02T06:20:36.049Z,7.37
2023-04-02T06:22:40.181Z,7.35
2023-04-02T06:24:47.272Z,7.42
2023-04-02T06:27:11.710Z,7.57
2023-04-02T06:29:24.282Z,7.57
2023-04-02T06:31:50.546Z,7.51
2023-04-02T06:33:56.108Z,7.46
2023-04-02T06:36:01.327Z,7.33
2023-04-02T06:38:13.419Z,7.32
2023-04-02T06:40:33.939Z,7.33
2023-04-02T06:42:44.202Z,7.34
2023-04-02T06:45:02.960Z,7.41
2023-04-02T06:47:34.983Z,7.65
2023-04-02T06:50:18.930Z,7.64
2023-04-02T06:52:28.933Z,7.72
2023-04-02T06:54:31.328Z,7.50
2023-04-02T06:56:43.450Z,7.40
2023-04-02T06:58:47.511Z,7.58
2023-04-02T07:00:50.947Z,7.52
2023-04-02T07:03:02.875Z,7.63
2023-04-02T07:05:08.882Z,7.66
2023-04-02T07:07:12.888Z,7.58
2023-04-02T07:09:17.436Z,7.30
2023-04-02T07:11:23.527Z,7.56
2023-04-02T07:13:28.066Z,7.53
2023-04-02T07:15:30.076Z,7.56
2023-04-02T07:17:32.957Z,7.75
2023-04-02T07:19:34.532Z,7.81
2023-04-02T07:21:36.162Z,7.86
2023-04-02T07:23:38.107Z,7.98
2023-04-02T07:25:39.637Z,7.94
2023-04-02T07:27:41.166Z,7.98
2023-04-02T07:29:42.926Z,7.98
2023-04-02T07:31:44.674Z,8.04
2023-04-02T07:33:46.711Z,7.82
2023-04-02T07:35:48.479Z,7.80
2023-04-02T07:37:50.022Z,7.49
2023-04-02T07:39:51.558Z,7.47
2023-04-02T07:41:58.558Z,7.19
2023-04-02T07:44:00.223Z,7.09
2023-04-02T07:46:02.749Z,7.26
2023-04-02T07:48:09.286Z,7.36
2023-04-02T07:50:11.127Z,7.55
2023-04-02T07:52:12.670Z,7.65
2023-04-02T07:54:14.268Z,7.51
2023-04-02T07:56:17.957Z,7.71
2023-04-02T07:58:19.498Z,7.74
2023-04-02T08:00:22.610Z,7.87
2023-04-02T08:02:24.293Z,7.71
2023-04-02T08:04:27.095Z,7.70
2023-04-02T08:06:28.527Z,7.66
2023-04-02T08:08:30.352Z,7.62
2023-04-02T08:10:31.933Z,7.74
2023-04-02T08:12:33.557Z,7.64
2023-04-02T08:14:35.132Z,7.66
2023-04-02T08:16:48.203Z,7.65
2023-04-02T08:18:49.834Z,7.76
2023-04-02T08:20:52.517Z,7.68
2023-04-02T08:22:54.004Z,7.71
2023-04-02T08:24:56.388Z,7.80
2023-04-02T08:26:57.931Z,7.70
2023-04-02T08:28:59.435Z,7.79
2023-04-02T08:31:01.998Z,7.67
2023-04-02T08:33:03.749Z,7.74
2023-04-02T08:35:05.795Z,7.80
2023-04-02T08:37:09.383Z,7.82
2023-04-02T08:39:11.638Z,7.86
2023-04-02T08:41:24.471Z,7.87
2023-04-02T08:43:37.532Z,7.93
2023-04-02T08:45:41.952Z,7.80
2023-04-02T08:47:44.612Z,7.82
2023-04-02T08:49:51.384Z,7.67
2023-04-02T08:51:53.424Z,7.47
2023-04-02T08:53:59.746Z,7.41
2023-04-02T08:56:18.954Z,7.34
2023-04-02T08:58:43.650Z,7.24
2023-04-02T09:00:48.730Z,7.15
2023-04-02T09:02:57.638Z,7.18
2023-04-02T09:05:02.251Z,7.18
2023-04-02T09:07:04.344Z,7.28
2023-04-02T09:09:06.634Z,7.21
2023-04-02T09:11:23.289Z,7.00
2023-04-02T09:13:30.425Z,7.05
2023-04-02T09:15:35.702Z,7.08
2023-04-02T09:17:50.444Z,6.98
2023-04-02T09:20:17.397Z,6.98
2023-04-02T09:22:22.700Z,7.12
2023-04-02T09:24:24.181Z,7.23
2023-04-02T09:26:31.138Z,7.47
2023-04-02T09:28:32.732Z,7.19
2023-04-02T09:30:46.677Z,7.15
2023-04-02T09:32:49.343Z,6.82
2023-04-02T09:34:51.134Z,6.74
2023-04-02T09:36:52.744Z,6.81
2023-04-02T09:39:15.631Z,6.76
2023-04-02T09:41:21.058Z,6.91
2023-04-02T09:43:28.318Z,7.02
2023-04-02T09:45:29.842Z,7.29
2023-04-02T09:47:31.847Z,7.27
2023-04-02T09:49:36.781Z,7.39
2023-04-02T09:51:38.392Z,7.40
2023-04-02T09:53:42.595Z,7.09
2023-04-02T09:55:44.385Z,7.07
2023-04-02T09:57:47.797Z,7.11
2023-04-02T10:00:30.653Z,7.25
2023-04-02T10:02:33.427Z,7.45
2023-04-02T10:04:47.610Z,6.98
2023-04-02T10:06:50.556Z,6.96
2023-04-02T10:08:51.976Z,6.83
2023-04-02T10:10:57.426Z,7.01
2023-04-02T10:13:15.452Z,7.15
2023-04-02T10:15:26.070Z,7.29
2023-04-02T10:17:32.463Z,7.47
2023-04-02T10:19:37.847Z,7.31
2023-04-02T10:21:41.041Z,7.19
2023-04-02T10:23:42.692Z,7.24
2023-04-02T10:26:16.148Z,7.34
2023-04-02T10:28:42.344Z,7.38
2023-04-02T10:31:07.612Z,7.51
2023-04-02T10:33:19.417Z,7.60
2023-04-02T10:35:54.966Z,7.82
2023-04-02T10:38:03.251Z,8.13
2023-04-02T10:40:36.080Z,8.22
2023-04-02T10:42:46.606Z,7.88
2023-04-02T10:45:23.450Z,7.86
2023-04-02T10:47:42.307Z,7.50
2023-04-02T10:50:04.045Z,7.50
2023-04-02T10:52:28.438Z,7.61
2023-04-02T10:54:36.589Z,7.79
2023-04-02T10:56:50.071Z,7.86
2023-04-02T10:58:57.250Z,7.84
2023-04-02T11:01:13.304Z,7.81
2023-04-02T11:03:22.586Z,7.81
2023-04-02T11:05:38.112Z,7.73
2023-04-02T11:07:52.040Z,7.79
2023-04-02T11:09:57.077Z,7.77
2023-04-02T11:12:01.543Z,7.46
2023-04-02T11:14:06.182Z,7.26
2023-04-02T11:16:07.827Z,7.28
2023-04-02T11:18:29.490Z,7.26
2023-04-02T11:20:57.311Z,7.49
2023-04-02T11:23:10.355Z,7.00
2023-04-02T11:25:21.911Z,6.94
2023-04-02T11:27:31.484Z,6.92
2023-04-02T11:29:35.809Z,7.21
2023-04-02T11:31:37.654Z,7.34
2023-04-02T11:33:45.477Z,6.98
2023-04-02T11:35:48.479Z,6.87
2023-04-02T11:37:50.109Z,7.04
2023-04-02T11:39:54.980Z,7.29
2023-04-02T11:42:04.743Z,7.36
2023-04-02T11:44:22.887Z,7.37
2023-04-02T11:46:34.051Z,7.54
2023-04-02T11:48:36.406Z,7.66
2023-04-02T11:50:42.692Z,7.84
2023-04-02T11:52:47.464Z,7.95
2023-04-02T11:54:57.844Z,8.07
2023-04-02T11:57:15.331Z,8.18
2023-04-02T11:59:38.408Z,8.09
2023-04-02T12:01:56.773Z,7.85
2023-04-02T12:04:13.804Z,7.78
2023-04-02T12:06:46.640Z,7.50
2023-04-02T12:09:14.748Z,7.08
2023-04-02T12:11:16.348Z,6.69
2023-04-02T12:13:20.371Z,6.24
2023-04-02T12:15:24.849Z,6.47
2023-04-02T12:17:30.873Z,6.49
2023-04-02T12:19:32.931Z,6.41
2023-04-02T12:21:34.683Z,6.37
2023-04-02T12:23:37.177Z,6.34
2023-04-02T12:25:40.629Z,6.31
2023-04-02T12:27:42.551Z,6.57
2023-04-02T12:29:44.099Z,6.53
2023-04-02T12:31:47.600Z,6.31
2023-04-02T12:33:52.892Z,6.03
2023-04-02T12:36:01.181Z,5.97
2023-04-02T12:38:02.903Z,6.24
2023-04-02T12:40:17.468Z,6.51
2023-04-02T12:42:36.416Z,6.24
2023-04-02T12:44:48.040Z,6.19
2023-04-02T12:46:51.134Z,6.32
2023-04-02T12:49:03.917Z,6.48
2023-04-02T12:51:05.916Z,6.68
2023-04-02T12:53:26.166Z,6.84
2023-04-02T12:55:27.823Z,6.72
2023-04-02T12:57:29.696Z,6.70
2023-04-02T12:59:36.277Z,6.44
2023-04-02T13:01:38.139Z,6.46
2023-04-02T13:03:39.753Z,6.40
2023-04-02T13:05:45.485Z,6.43
2023-04-02T13:07:47.917Z,6.41
2023-04-02T13:09:54.501Z,6.11
2023-04-02T13:11:56.340Z,6.15
2023-04-02T13:14:02.322Z,6.04
2023-04-02T13:16:10.374Z,5.89
2023-04-02T13:18:20.841Z,5.70
2023-04-02T13:20:36.600Z,5.69
2023-04-02T13:22:38.454Z,5.59
2023-04-02T13:24:41.291Z,5.79
2023-04-02T13:26:43.241Z,5.99
2023-04-02T13:29:02.321Z,5.92
2023-04-02T13:31:03.880Z,5.97
2023-04-02T13:33:05.532Z,6.13
2023-04-02T13:35:07.994Z,5.99
2023-04-02T13:37:12.158Z,5.74
2023-04-02T13:39:13.941Z,5.79
2023-04-02T13:41:22.405Z,5.81
2023-04-02T13:43:23.976Z,5.64
2023-04-02T13:45:28.590Z,5.63
2023-04-02T13:47:30.140Z,5.59
2023-04-02T13:49:31.954Z,5.57
2023-04-02T13:51:44.513Z,5.67
2023-04-02T13:53:52.746Z,5.60
2023-04-02T13:55:54.385Z,5.47
2023-04-02T13:57:57.090Z,5.16
2023-04-02T13:59:58.592Z,5.04
2023-04-02T14:02:07.025Z,4.91
2023-04-02T14:04:10.676Z,4.98
2023-04-02T14:06:17.816Z,4.67
2023-04-02T14:08:33.132Z,4.72
2023-04-02T14:10:59.044Z,4.74
2023-04-02T14:13:24.064Z,4.66
2023-04-02T14:15:43.875Z,4.57
2023-04-02T14:18:03.868Z,4.75
2023-04-02T14:20:32.642Z,4.58
2023-04-02T14:22:39.830Z,4.45
2023-04-02T14:25:31.186Z,4.48
2023-04-02T14:27:53.624Z,4.46
2023-04-02T14:30:13.711Z,4.71
2023-04-02T14:32:23.013Z,4.61
2023-04-02T14:34:36.320Z,4.56
2023-04-02T14:36:45.974Z,4.62
2023-04-02T14:39:25.081Z,4.68
2023-04-02T14:41:34.735Z,4.44
2023-04-02T14:43:46.204Z,4.46
2023-04-02T14:46:02.680Z,4.44
2023-04-02T14:48:34.447Z,4.50
2023-04-02T14:50:41.617Z,4.39
2023-04-02T14:52:47.402Z,4.32
2023-04-02T14:55:02.155Z,4.09
2023-04-02T14:57:18.575Z,4.15
2023-04-02T14:59:48.345Z,4.30
2023-04-02T15:01:56.640Z,4.23
2023-04-02T15:04:02.969Z,4.31
2023-04-02T15:06:14.870Z,4.23
2023-04-02T15:08:27.202Z,5.85
2023-04-02T15:10:32.331Z,5.80
2023-04-02T15:12:36.990Z,6.21
2023-04-02T15:14:44.094Z,7.01
2023-04-02T15:16:45.748Z,7.43
2023-04-02T15:18:51.918Z,7.46
2023-04-02T15:21:29.435Z,8.18
2023-04-02T15:23:43.101Z,8.89
2023-04-02T15:25:48.710Z,9.71
2023-04-02T15:28:16.994Z,9.85
2023-04-02T15:30:24.723Z,9.88
2023-04-02T15:32:32.859Z,10.29
2023-04-02T15:34:58.787Z,12.02
2023-04-02T15:37:02.910Z,12.78
2023-04-02T15:39:17.580Z,11.57
2023-04-02T15:41:27.673Z,10.81
2023-04-02T15:43:35.332Z,10.16
2023-04-02T15:45:41.738Z,10.06
2023-04-02T15:48:40.812Z,9.52
2023-04-02T15:50:57.972Z,9.57
2023-04-02T15:53:07.897Z,9.55
2023-04-02T15:55:37.232Z,10.26
2023-04-02T15:57:41.806Z,10.64
2023-04-02T16:00:14.499Z,9.73
2023-04-02T16:02:48.505Z,8.92
2023-04-02T16:05:03.711Z,8.13
2023-04-02T16:07:27.064Z,7.65
2023-04-02T16:09:50.025Z,7.28
2023-04-02T16:11:59.465Z,6.82
2023-04-02T16:14:15.316Z,6.45
2023-04-02T16:16:20.943Z,6.47
2023-04-02T16:19:16.129Z,6.22
2023-04-02T16:21:24.012Z,6.04
2023-04-02T16:23:33.670Z,6.05
2023-04-02T16:25:45.331Z,5.74
2023-04-02T16:27:54.776Z,5.67
2023-04-02T16:30:08.914Z,5.32
2023-04-02T16:32:50.420Z,5.35
2023-04-02T16:35:41.178Z,5.29
2023-04-02T16:37:57.957Z,5.64
2023-04-02T16:40:26.562Z,5.47
2023-04-02T16:42:39.306Z,5.38
2023-04-02T16:44:50.296Z,5.34
2023-04-02T16:47:10.085Z,5.45
2023-04-02T16:49:26.999Z,5.08
2023-04-02T16:51:44.081Z,4.84
2023-04-02T16:54:13.731Z,4.66
2023-04-02T16:56:34.979Z,4.42
2023-04-02T16:59:03.658Z,4.31
2023-04-02T17:01:13.798Z,4.43
2023-04-02T17:03:37.617Z,4.59
2023-04-02T17:05:48.840Z,4.65
2023-04-02T17:08:11.810Z,4.77
2023-04-02T17:10:30.381Z,4.75
2023-04-02T17:12:43.361Z,4.66
2023-04-02T17:14:52.716Z,4.58
2023-04-02T17:17:01.130Z,4.52
2023-04-02T17:19:10.715Z,4.53
2023-04-02T17:21:17.484Z,4.40
2023-04-02T17:23:20.161Z,4.34
2023-04-02T17:25:26.248Z,4.26
2023-04-02T17:27:32.410Z,4.32
2023-04-02T17:29:40.406Z,4.16
2023-04-02T17:31:44.022Z,3.97
2023-04-02T17:33:45.622Z,4.04
2023-04-02T17:36:05.834Z,4.00
2023-04-02T17:38:17.016Z,4.04
2023-04-02T17:40:49.793Z,4.07
2023-04-02T17:43:12.358Z,4.09
2023-04-02T17:45:20.574Z,4.15
2023-04-02T17:47:28.431Z,4.18
2023-04-02T17:49:36.092Z,4.09
2023-04-02T17:52:01.867Z,4.23
2023-04-02T17:54:21.946Z,4.19
2023-04-02T17:56:52.812Z,4.08
2023-04-02T17:59:16.345Z,3.78
2023-04-02T18:01:46.832Z,3.87
2023-04-02T18:04:18.644Z,3.97
2023-04-02T18:06:22.120Z,3.97
2023-04-02T18:08:33.776Z,4.04
2023-04-02T18:10:53.414Z,3.88
2023-04-02T18:12:58.205Z,3.92
2023-04-02T18:15:21.792Z,3.88
2023-04-02T18:17:52.364Z,3.85
2023-04-02T18:20:14.226Z,3.85
2023-04-02T18:22:31.056Z,3.95
2023-04-02T18:24:58.934Z,3.71
2023-04-02T18:27:24.686Z,3.70
2023-04-02T18:29:44.197Z,3.79
2023-04-02T18:31:52.905Z,3.66
2023-04-02T18:34:10.750Z,3.70
2023-04-02T18:36:33.995Z,3.64
2023-04-02T18:38:57.571Z,3.58
2023-04-02T18:41:14.463Z,3.60
2023-04-02T18:43:52.569Z,3.65
2023-04-02T18:46:15.946Z,3.65
2023-04-02T18:48:56.580Z,3.69
2023-04-02T18:51:00.679Z,3.75
2023-04-02T18:53:18.481Z,3.75
2023-04-02T18:55:24.475Z,3.71
2023-04-02T18:57:33.946Z,3.73
2023-04-02T18:59:56.642Z,3.77
2023-04-02T19:02:00.384Z,3.81
2023-04-02T19:04:14.615Z,3.80
2023-04-02T19:06:21.269Z,3.74
2023-04-02T19:08:53.662Z,3.68
2023-04-02T19:11:00.733Z,3.68
2023-04-02T19:13:02.361Z,3.68
2023-04-02T19:15:15.300Z,3.57
2023-04-02T19:17:39.660Z,3.64
2023-04-02T19:20:01.072Z,3.72
2023-04-02T19:22:12.804Z,3.75
2023-04-02T19:24:52.449Z,3.69
2023-04-02T19:26:59.192Z,3.64
2023-04-02T19:29:22.299Z,3.53
2023-04-02T19:31:45.862Z,3.54
2023-04-02T19:33:56.710Z,3.64
2023-04-02T19:36:01.346Z,3.46
2023-04-02T19:38:21.310Z,3.46
2023-04-02T19:40:34.708Z,3.46
2023-04-02T19:42:51.279Z,3.30
2023-04-02T19:44:54.314Z,3.41
2023-04-02T19:46:56.012Z,3.39
2023-04-02T19:49:16.755Z,3.32
2023-04-02T19:51:18.296Z,3.26
2023-04-02T19:53:20.030Z,3.37
2023-04-02T19:55:21.578Z,3.33
2023-04-02T19:57:23.071Z,3.38
2023-04-02T19:59:24.724Z,3.55
2023-04-02T20:01:26.270Z,3.69
2023-04-02T20:03:28.574Z,3.68
2023-04-02T20:05:30.415Z,3.73
2023-04-02T20:07:31.922Z,3.42
2023-04-02T20:09:33.409Z,3.36
2023-04-02T20:11:37.073Z,3.30
2023-04-02T20:13:38.644Z,3.16
2023-04-02T20:15:40.983Z,2.96
2023-04-02T20:17:42.511Z,3.05
2023-04-02T20:19:44.046Z,2.93
2023-04-02T20:21:45.788Z,2.96
2023-04-02T20:23:47.514Z,2.92
2023-04-02T20:25:53.137Z,2.89
2023-04-02T20:27:54.707Z,2.88
2023-04-02T20:29:56.953Z,2.64
2023-04-02T20:31:58.495Z,2.67
2023-04-02T20:34:00.243Z,2.79
2023-04-02T20:36:06.596Z,2.91
2023-04-02T20:38:08.910Z,2.94
2023-04-02T20:40:10.764Z,2.93
2023-04-02T20:42:13.987Z,3.00
2023-04-02T20:44:15.805Z,3.07
2023-04-02T20:46:17.590Z,3.03
2023-04-02T20:48:19.094Z,2.98
2023-04-02T20:50:20.835Z,2.98
2023-04-02T20:52:23.035Z,2.87
2023-04-02T20:54:24.645Z,2.89
2023-04-02T20:56:26.708Z,2.97
2023-04-02T20:58:28.203Z,2.96
2023-04-02T21:00:29.818Z,3.00
2023-04-02T21:02:31.690Z,2.92
2023-04-02T21:04:33.287Z,2.96
2023-04-02T21:06:37.943Z,3.11
2023-04-02T21:08:39.510Z,3.12
2023-04-02T21:10:41.094Z,3.10
2023-04-02T21:12:42.583Z,3.10
2023-04-02T21:14:44.153Z,3.15
2023-04-02T21:16:45.640Z,3.17
2023-04-02T21:18:49.463Z,3.15
2023-04-02T21:21:02.567Z,3.23
2023-04-02T21:23:04.057Z,3.24
2023-04-02T21:25:06.001Z,3.26
2023-04-02T21:27:07.516Z,3.27
2023-04-02T21:29:11.294Z,3.29
2023-04-02T21:31:18.756Z,3.28
2023-04-02T21:33:20.441Z,3.24
2023-04-02T21:35:21.907Z,3.23
2023-04-02T21:37:23.464Z,3.19
2023-04-02T21:39:25.207Z,3.14
2023-04-02T21:41:32.163Z,3.22
2023-04-02T21:43:33.686Z,3.21
2023-04-02T21:45:35.344Z,3.03
2023-04-02T21:47:37.230Z,2.98
2023-04-02T21:49:38.807Z,2.98
2023-04-02T21:51:42.313Z,3.11
2023-04-02T21:53:44.297Z,3.19
2023-04-02T21:55:45.904Z,3.17
2023-04-02T21:57:47.379Z,3.17
2023-04-02T21:59:48.965Z,3.11
2023-04-02T22:01:51.942Z,3.03
2023-04-02T22:03:56.575Z,3.00
2023-04-02T22:06:16.079Z,3.10
2023-04-02T22:08:17.632Z,3.15
2023-04-02T22:10:19.153Z,3.26
2023-04-02T22:12:20.762Z,3.20
2023-04-02T22:14:23.187Z,3.10
2023-04-02T22:16:27.280Z,3.22
2023-04-02T22:18:29.443Z,3.15
2023-04-02T22:20:31.030Z,2.96
2023-04-02T22:22:32.805Z,2.87
2023-04-02T22:24:34.258Z,2.78
2023-04-02T22:26:36.270Z,2.87
2023-04-02T22:28:38.371Z,2.94
2023-04-02T22:30:39.866Z,2.88
2023-04-02T22:32:41.426Z,2.88
2023-04-02T22:34:45.497Z,2.93
2023-04-02T22:36:47.281Z,3.09
2023-04-02T22:38:49.472Z,3.17
2023-04-02T22:40:51.173Z,3.20
2023-04-02T22:42:53.004Z,3.27
2023-04-02T22:44:54.457Z,3.34
2023-04-02T22:46:55.941Z,3.18
2023-04-02T22:48:57.845Z,2.99
2023-04-02T22:50:59.379Z,2.85
2023-04-02T22:53:01.252Z,2.78
2023-04-02T22:55:02.883Z,2.95
2023-04-02T22:57:04.607Z,3.10
2023-04-02T22:59:06.581Z,3.24
2023-04-02T23:01:15.790Z,3.26
2023-04-02T23:03:17.275Z,3.27
2023-04-02T23:05:18.768Z,3.26
2023-04-02T23:07:20.342Z,3.07
2023-04-02T23:09:21.887Z,3.01
2023-04-02T23:11:27.088Z,3.18
2023-04-02T23:13:28.821Z,3.24
2023-04-02T23:15:30.462Z,3.23
2023-04-02T23:17:31.942Z,3.21
2023-04-02T23:19:33.455Z,3.20
2023-04-02T23:21:34.977Z,3.25
2023-04-02T23:23:37.848Z,3.25
2023-04-02T23:25:41.115Z,3.17
2023-04-02T23:27:42.617Z,3.12
2023-04-02T23:29:44.148Z,2.98
2023-04-02T23:31:45.929Z,3.02
2023-04-02T23:33:47.850Z,2.99
2023-04-02T23:35:49.330Z,3.06
2023-04-02T23:37:50.931Z,3.11
2023-04-02T23:39:52.371Z,3.20
2023-04-02T23:41:53.854Z,3.10
2023-04-02T23:43:56.390Z,3.15
2023-04-02T23:45:58.091Z,3.18
2023-04-02T23:47:59.614Z,3.15
2023-04-02T23:50:01.171Z,3.19
2023-04-02T23:52:02.760Z,3.20
2023-04-02T23:54:04.571Z,3.09
2023-04-02T23:56:06.451Z,2.95
2023-04-02T23:58:08.094Z,2.89
